createdAt,value
2022-11-26T00:00:53.742Z,8.35
2022-11-26T00:03:22.037Z,8.07
2022-11-26T00:05:52.843Z,8.40
2022-11-26T00:08:24.266Z,8.30
2022-11-26T00:10:54.412Z,8.24
2022-11-26T00:13:25.836Z,8.32
2022-11-26T00:15:54.786Z,8.27
2022-11-26T00:18:26.791Z,8.35
2022-11-26T00:20:57.997Z,8.31
2022-11-26T00:23:28.772Z,8.48
2022-11-26T00:25:58.759Z,8.48
2022-11-26T00:28:33.695Z,8.01
2022-11-26T00:31:04.471Z,8.40
2022-11-26T00:33:33.100Z,8.50
2022-11-26T00:36:05.094Z,8.41
2022-11-26T00:38:33.386Z,8.44
2022-11-26T00:41:02.024Z,8.41
2022-11-26T00:43:31.728Z,8.47
2022-11-26T00:45:59.807Z,8.56
2022-11-26T00:48:27.874Z,8.38
2022-11-26T00:50:55.882Z,8.43
2022-11-26T00:53:27.421Z,8.58
2022-11-26T00:55:55.461Z,8.57
2022-11-26T00:58:28.591Z,7.74
2022-11-26T01:01:00.039Z,8.47
2022-11-26T01:03:29.713Z,8.41
2022-11-26T01:06:01.429Z,8.45
2022-11-26T01:08:33.014Z,8.46
2022-11-26T01:11:02.378Z,8.37
2022-11-26T01:13:31.106Z,8.49
2022-11-26T01:16:04.887Z,8.51
2022-11-26T01:18:36.657Z,8.10
2022-11-26T01:21:04.865Z,8.33
2022-11-26T01:23:32.843Z,8.58
2022-11-26T01:26:06.212Z,8.21
2022-11-26T01:28:34.727Z,8.38
2022-11-26T01:31:04.103Z,8.60
2022-11-26T01:33:32.125Z,8.48
2022-11-26T01:36:03.135Z,8.45
2022-11-26T01:38:31.352Z,7.80
2022-11-26T01:41:13.699Z,8.45
2022-11-26T01:43:43.882Z,8.35
2022-11-26T01:46:17.541Z,8.41
2022-11-26T01:48:46.834Z,8.34
2022-11-26T01:51:16.783Z,8.36
2022-11-26T01:53:48.889Z,8.32
2022-11-26T01:56:34.411Z,8.24
2022-11-26T01:59:12.702Z,8.11
2022-11-26T02:01:42.497Z,8.17
2022-11-26T02:04:14.832Z,7.99
2022-11-26T02:06:45.258Z,8.08
2022-11-26T02:09:14.654Z,8.11
2022-11-26T02:11:42.754Z,8.12
2022-11-26T02:14:15.717Z,7.60
2022-11-26T02:17:06.743Z,8.33
2022-11-26T02:20:17.796Z,8.37
2022-11-26T02:23:07.505Z,8.30
2022-11-26T02:25:54.434Z,8.48
2022-11-26T02:28:40.903Z,8.37
2022-11-26T02:31:12.887Z,8.38
2022-11-26T02:33:48.775Z,8.11
2022-11-26T02:36:22.370Z,8.27
2022-11-26T02:38:51.673Z,8.16
2022-11-26T02:41:19.674Z,8.14
2022-11-26T02:43:48.285Z,7.96
2022-11-26T02:46:21.249Z,8.18
2022-11-26T02:48:53.070Z,8.27
2022-11-26T02:51:25.019Z,8.16
2022-11-26T02:53:54.737Z,8.41
2022-11-26T02:56:26.037Z,8.28
2022-11-26T02:58:55.545Z,8.16
2022-11-26T03:01:44.358Z,8.26
2022-11-26T03:04:18.893Z,8.31
2022-11-26T03:06:47.813Z,8.34
2022-11-26T03:09:18.125Z,8.24
2022-11-26T03:11:46.461Z,8.12
2022-11-26T03:14:14.496Z,8.11
2022-11-26T03:16:44.091Z,7.92
2022-11-26T03:19:12.131Z,7.63
2022-11-26T03:21:40.291Z,8.14
2022-11-26T03:24:08.586Z,7.77
2022-11-26T03:26:36.528Z,8.06
2022-11-26T03:29:06.642Z,8.04
2022-11-26T03:31:35.013Z,8.07
2022-11-26T03:34:04.392Z,7.99
2022-11-26T03:36:32.470Z,7.91
2022-11-26T03:39:00.517Z,7.82
2022-11-26T03:41:28.531Z,7.69
2022-11-26T03:43:56.881Z,7.73
2022-11-26T03:46:25.081Z,7.87
2022-11-26T03:48:53.195Z,7.85
2022-11-26T03:51:22.831Z,7.91
2022-11-26T03:53:51.362Z,7.99
2022-11-26T03:56:19.634Z,7.95
2022-11-26T03:58:47.608Z,7.63
2022-11-26T04:01:16.017Z,8.01
2022-11-26T04:03:44.149Z,7.92
2022-11-26T04:06:12.360Z,7.84
2022-11-26T04:08:41.915Z,7.80
2022-11-26T04:11:12.003Z,7.87
2022-11-26T04:13:40.182Z,7.72
2022-11-26T04:16:08.775Z,7.67
2022-11-26T04:18:37.408Z,7.55
2022-11-26T04:21:07.180Z,7.51
2022-11-26T04:23:36.345Z,7.48
2022-11-26T04:26:06.091Z,7.37
2022-11-26T04:28:34.380Z,7.35
2022-11-26T04:31:02.557Z,7.34
2022-11-26T04:33:30.740Z,7.35
2022-11-26T04:35:58.955Z,7.28
2022-11-26T04:38:27.057Z,6.83
2022-11-26T04:40:54.987Z,7.37
2022-11-26T04:43:24.441Z,7.43
2022-11-26T04:45:52.660Z,7.24
2022-11-26T04:48:20.781Z,7.42
2022-11-26T04:50:52.722Z,7.39
2022-11-26T04:53:22.143Z,7.32
2022-11-26T04:55:50.928Z,7.40
2022-11-26T04:58:19.674Z,7.40
2022-11-26T05:00:51.303Z,7.40
2022-11-26T05:03:20.147Z,7.51
2022-11-26T05:05:49.068Z,7.50
2022-11-26T05:08:17.334Z,7.42
2022-11-26T05:10:45.354Z,7.24
2022-11-26T05:13:13.511Z,7.33
2022-11-26T05:15:41.618Z,7.30
2022-11-26T05:18:12.335Z,7.27
2022-11-26T05:20:40.381Z,6.66
2022-11-26T05:23:08.545Z,7.24
2022-11-26T05:25:36.736Z,7.24
2022-11-26T05:28:05.442Z,7.24
2022-11-26T05:30:33.637Z,7.23
2022-11-26T05:33:01.709Z,7.14
2022-11-26T05:35:31.200Z,7.22
2022-11-26T05:37:59.078Z,7.24
2022-11-26T05:40:27.078Z,7.31
2022-11-26T05:42:55.305Z,7.16
2022-11-26T05:45:23.432Z,7.34
2022-11-26T05:47:53.487Z,7.32
2022-11-26T05:50:21.532Z,7.37
2022-11-26T05:52:55.586Z,7.35
2022-11-26T05:55:23.598Z,7.32
2022-11-26T05:57:51.695Z,7.31
2022-11-26T06:00:20.245Z,7.42
2022-11-26T06:02:48.457Z,7.32
2022-11-26T06:05:16.563Z,7.38
2022-11-26T06:07:45.188Z,7.35
2022-11-26T06:10:15.131Z,7.31
2022-11-26T06:12:43.301Z,7.24
2022-11-26T06:15:11.832Z,6.74
2022-11-26T06:17:39.845Z,7.51
2022-11-26T06:20:09.172Z,7.42
2022-11-26T06:22:39.237Z,7.36
2022-11-26T06:25:09.137Z,7.45
2022-11-26T06:27:39.103Z,7.42
2022-11-26T06:30:09.745Z,7.51
2022-11-26T06:32:38.014Z,7.24
2022-11-26T06:35:07.263Z,7.50
2022-11-26T06:37:35.296Z,7.50
2022-11-26T06:40:03.946Z,7.21
2022-11-26T06:42:35.407Z,7.33
2022-11-26T06:45:05.746Z,7.48
2022-11-26T06:47:35.046Z,7.47
2022-11-26T06:50:09.255Z,7.43
2022-11-26T06:52:41.393Z,7.42
2022-11-26T06:55:10.332Z,7.45
2022-11-26T06:57:38.982Z,7.46
2022-11-26T07:00:09.911Z,7.41
2022-11-26T07:02:38.593Z,7.64
2022-11-26T07:05:06.603Z,7.59
2022-11-26T07:07:38.167Z,7.49
2022-11-26T07:10:07.880Z,7.67
2022-11-26T07:12:36.112Z,7.68
2022-11-26T07:15:04.413Z,7.54
2022-11-26T07:17:33.870Z,7.72
2022-11-26T07:20:02.057Z,7.73
2022-11-26T07:22:30.456Z,7.63
2022-11-26T07:24:58.948Z,7.74
2022-11-26T07:27:27.042Z,7.60
2022-11-26T07:29:55.012Z,7.55
2022-11-26T07:32:22.840Z,7.75
2022-11-26T07:34:52.167Z,7.61
2022-11-26T07:37:20.154Z,7.78
2022-11-26T07:39:48.642Z,7.22
2022-11-26T07:42:17.000Z,7.64
2022-11-26T07:44:45.398Z,7.57
2022-11-26T07:47:13.322Z,7.91
2022-11-26T07:49:41.488Z,7.88
2022-11-26T07:52:10.939Z,7.80
2022-11-26T07:54:39.638Z,7.82
2022-11-26T07:57:07.956Z,7.18
2022-11-26T07:59:36.032Z,7.26
2022-11-26T08:02:04.075Z,7.78
2022-11-26T08:04:32.426Z,7.79
2022-11-26T08:07:00.502Z,7.60
2022-11-26T08:09:30.406Z,7.68
2022-11-26T08:11:58.419Z,7.66
2022-11-26T08:14:26.429Z,7.68
2022-11-26T08:16:54.793Z,7.30
2022-11-26T08:19:23.047Z,7.64
2022-11-26T08:21:50.993Z,7.63
2022-11-26T08:24:20.572Z,7.56
2022-11-26T08:26:49.959Z,7.55
2022-11-26T08:29:17.923Z,7.68
2022-11-26T08:31:46.915Z,7.74
2022-11-26T08:34:17.320Z,7.92
2022-11-26T08:36:45.944Z,7.99
2022-11-26T08:39:14.877Z,8.01
2022-11-26T08:41:46.178Z,7.90
2022-11-26T08:44:21.149Z,7.93
2022-11-26T08:46:49.250Z,7.67
2022-11-26T08:49:17.954Z,7.82
2022-11-26T08:51:46.190Z,7.57
2022-11-26T08:54:14.534Z,8.06
2022-11-26T08:56:42.550Z,7.82
2022-11-26T08:59:10.642Z,7.99
2022-11-26T09:01:40.305Z,8.14
2022-11-26T09:04:08.281Z,8.16
2022-11-26T09:06:37.846Z,8.26
2022-11-26T09:09:17.446Z,8.15
2022-11-26T09:11:48.961Z,8.25
2022-11-26T09:14:19.286Z,8.29
2022-11-26T09:16:49.034Z,8.23
2022-11-26T09:19:17.808Z,8.37
2022-11-26T09:21:46.377Z,8.47
2022-11-26T09:24:15.010Z,8.43
2022-11-26T09:26:42.972Z,8.55
2022-11-26T09:29:14.758Z,8.59
2022-11-26T09:32:15.333Z,8.65
2022-11-26T09:34:34.461Z,8.49
2022-11-26T09:37:02.624Z,8.70
2022-11-26T09:39:30.945Z,8.52
2022-11-26T09:42:06.451Z,8.84
2022-11-26T09:44:58.746Z,8.60
2022-11-26T09:47:29.019Z,8.55
2022-11-26T09:50:02.354Z,8.74
2022-11-26T09:52:36.513Z,8.73
2022-11-26T09:55:16.556Z,8.66
2022-11-26T09:57:58.882Z,8.49
2022-11-26T10:00:30.072Z,8.98
2022-11-26T10:02:59.238Z,9.05
2022-11-26T10:05:40.823Z,9.05
2022-11-26T10:08:23.166Z,9.24
2022-11-26T10:11:01.189Z,9.16
2022-11-26T10:13:41.184Z,9.24
2022-11-26T10:16:15.696Z,9.35
2022-11-26T10:18:51.820Z,9.45
2022-11-26T10:21:37.986Z,9.50
2022-11-26T10:24:22.611Z,9.52
2022-11-26T10:26:51.297Z,8.65
2022-11-26T10:29:25.365Z,9.19
2022-11-26T10:31:59.528Z,9.57
2022-11-26T10:34:39.508Z,9.43
2022-11-26T10:37:09.442Z,9.53
2022-11-26T10:39:37.407Z,9.63
2022-11-26T10:42:12.372Z,9.67
2022-11-26T10:44:42.412Z,8.80
2022-11-26T10:47:21.530Z,9.82
2022-11-26T10:49:50.280Z,9.85
2022-11-26T10:52:24.466Z,9.80
2022-11-26T10:55:09.324Z,9.90
2022-11-26T10:57:43.807Z,9.85
2022-11-26T11:00:31.627Z,9.96
2022-11-26T11:03:00.965Z,9.91
2022-11-26T11:05:29.964Z,9.85
2022-11-26T11:07:59.780Z,9.82
2022-11-26T11:10:27.956Z,9.84
2022-11-26T11:13:12.991Z,9.65
2022-11-26T11:15:42.501Z,9.61
2022-11-26T11:18:19.313Z,9.67
2022-11-26T11:20:55.656Z,9.83
2022-11-26T11:23:52.214Z,9.78
2022-11-26T11:26:20.903Z,9.81
2022-11-26T11:28:51.138Z,9.87
2022-11-26T11:31:21.169Z,9.94
2022-11-26T11:33:50.517Z,9.78
2022-11-26T11:36:22.242Z,9.52
2022-11-26T11:38:53.690Z,9.97
2022-11-26T11:41:26.966Z,10.14
2022-11-26T11:44:00.330Z,10.11
2022-11-26T11:46:44.521Z,9.98
2022-11-26T11:49:19.548Z,10.10
2022-11-26T11:52:05.065Z,10.24
2022-11-26T11:54:48.833Z,10.18
2022-11-26T11:57:32.032Z,10.20
2022-11-26T12:00:13.502Z,10.05
2022-11-26T12:03:14.195Z,10.30
2022-11-26T12:05:58.084Z,10.34
2022-11-26T12:08:38.834Z,10.26
2022-11-26T12:11:24.480Z,10.50
2022-11-26T12:13:57.418Z,10.52
2022-11-26T12:16:29.961Z,10.49
2022-11-26T12:19:03.401Z,10.29
2022-11-26T12:21:38.340Z,10.41
2022-11-26T12:24:10.306Z,10.38
2022-11-26T12:26:45.181Z,10.43
2022-11-26T12:29:19.485Z,10.49
2022-11-26T12:31:51.195Z,10.48
2022-11-26T12:34:29.946Z,9.97
2022-11-26T12:37:02.632Z,10.42
2022-11-26T12:39:39.802Z,10.35
2022-11-26T12:42:18.763Z,10.25
2022-11-26T12:44:51.707Z,10.19
2022-11-26T12:47:26.218Z,10.23
2022-11-26T12:50:06.739Z,9.97
2022-11-26T12:52:42.136Z,10.10
2022-11-26T12:55:18.813Z,10.12
2022-11-26T12:57:54.240Z,10.20
2022-11-26T13:00:30.148Z,10.24
2022-11-26T13:03:00.943Z,9.93
2022-11-26T13:05:38.027Z,10.25
2022-11-26T13:08:34.053Z,10.16
2022-11-26T13:11:18.404Z,10.08
2022-11-26T13:13:55.830Z,9.87
2022-11-26T13:16:34.802Z,9.91
2022-11-26T13:19:07.934Z,9.83
2022-11-26T13:21:51.041Z,9.79
2022-11-26T13:24:31.188Z,9.73
2022-11-26T13:27:14.521Z,9.64
2022-11-26T13:30:06.077Z,9.68
2022-11-26T13:33:13.547Z,9.59
2022-11-26T13:36:07.369Z,9.58
2022-11-26T13:38:50.139Z,9.54
2022-11-26T13:41:49.728Z,9.63
2022-11-26T13:44:32.126Z,9.58
2022-11-26T13:47:04.708Z,9.71
2022-11-26T13:49:40.315Z,9.70
2022-11-26T13:52:14.006Z,9.77
2022-11-26T13:54:47.127Z,9.77
2022-11-26T13:57:20.537Z,9.76
2022-11-26T13:59:50.655Z,9.67
2022-11-26T14:02:53.327Z,9.65
2022-11-26T14:05:21.475Z,9.53
2022-11-26T14:07:49.526Z,9.54
2022-11-26T14:10:43.782Z,9.50
2022-11-26T14:13:17.179Z,9.40
2022-11-26T14:16:10.585Z,9.43
2022-11-26T14:19:01.870Z,9.52
2022-11-26T14:21:31.666Z,9.42
2022-11-26T14:24:01.927Z,9.35
2022-11-26T14:26:31.575Z,9.36
2022-11-26T14:29:11.777Z,9.05
2022-11-26T14:31:43.649Z,8.85
2022-11-26T14:34:18.617Z,8.74
2022-11-26T14:36:55.572Z,8.90
2022-11-26T14:39:23.646Z,8.57
2022-11-26T14:42:01.909Z,8.90
2022-11-26T14:44:34.063Z,8.79
2022-11-26T14:47:10.855Z,8.71
2022-11-26T14:49:42.738Z,8.75
2022-11-26T14:52:20.610Z,8.63
2022-11-26T14:54:52.844Z,8.67
2022-11-26T14:57:25.775Z,8.45
2022-11-26T14:59:58.933Z,8.50
2022-11-26T15:02:30.184Z,8.42
2022-11-26T15:05:02.000Z,8.36
2022-11-26T15:07:32.192Z,8.26
2022-11-26T15:10:05.940Z,8.09
2022-11-26T15:12:36.294Z,8.06
2022-11-26T15:15:05.038Z,7.96
2022-11-26T15:17:35.433Z,7.93
2022-11-26T15:20:09.104Z,7.86
2022-11-26T15:22:42.239Z,7.75
2022-11-26T15:25:18.620Z,7.64
2022-11-26T15:27:54.749Z,7.61
2022-11-26T15:30:25.141Z,7.62
2022-11-26T15:33:03.897Z,7.56
2022-11-26T15:35:34.450Z,7.55
2022-11-26T15:38:02.801Z,7.50
2022-11-26T15:40:33.667Z,6.93
2022-11-26T15:43:05.166Z,7.25
2022-11-26T15:45:40.928Z,7.22
2022-11-26T15:48:27.608Z,7.07
2022-11-26T15:51:07.487Z,6.91
2022-11-26T15:53:38.555Z,6.44
2022-11-26T15:56:09.624Z,7.12
2022-11-26T15:58:41.118Z,6.88
2022-11-26T16:01:17.641Z,7.14
2022-11-26T16:03:48.242Z,7.06
2022-11-26T16:06:33.521Z,7.13
2022-11-26T16:09:06.725Z,7.17
2022-11-26T16:11:36.948Z,7.23
2022-11-26T16:14:30.365Z,7.30
2022-11-26T16:17:02.508Z,7.12
2022-11-26T16:19:34.959Z,7.29
2022-11-26T16:22:07.251Z,7.24
2022-11-26T16:24:38.804Z,6.05
2022-11-26T16:27:24.763Z,6.91
2022-11-26T16:29:52.800Z,7.22
2022-11-26T16:32:21.442Z,6.95
2022-11-26T16:34:49.484Z,7.21
2022-11-26T16:37:23.792Z,5.85
2022-11-26T16:39:54.157Z,7.13
2022-11-26T16:42:24.320Z,7.10
2022-11-26T16:44:52.886Z,7.05
2022-11-26T16:47:24.762Z,7.04
2022-11-26T16:49:53.721Z,6.82
2022-11-26T16:52:23.738Z,7.02
2022-11-26T16:54:52.462Z,6.93
2022-11-26T16:57:23.202Z,5.47
2022-11-26T16:59:57.629Z,6.95
2022-11-26T17:02:28.746Z,6.91
2022-11-26T17:04:56.897Z,6.94
2022-11-26T17:07:29.905Z,6.82
2022-11-26T17:09:58.468Z,6.64
2022-11-26T17:12:26.815Z,6.50
2022-11-26T17:14:55.028Z,6.98
2022-11-26T17:17:25.591Z,6.92
2022-11-26T17:19:53.798Z,6.87
2022-11-26T17:22:21.725Z,6.87
2022-11-26T17:24:53.077Z,6.85
2022-11-26T17:27:23.411Z,6.85
2022-11-26T17:29:51.206Z,6.86
2022-11-26T17:32:20.479Z,6.29
2022-11-26T17:34:49.084Z,6.79
2022-11-26T17:37:21.451Z,6.78
2022-11-26T17:39:49.768Z,6.79
2022-11-26T17:42:20.069Z,6.54
2022-11-26T17:44:47.835Z,6.85
2022-11-26T17:47:18.141Z,6.80
2022-11-26T17:49:46.474Z,6.95
2022-11-26T17:52:14.666Z,7.03
2022-11-26T17:54:43.064Z,7.08
2022-11-26T17:57:12.111Z,6.59
2022-11-26T17:59:42.150Z,7.20
2022-11-26T18:02:10.886Z,6.88
2022-11-26T18:04:39.368Z,7.04
2022-11-26T18:07:09.233Z,7.18
2022-11-26T18:09:37.944Z,7.18
2022-11-26T18:12:07.844Z,7.19
2022-11-26T18:14:36.238Z,7.16
2022-11-26T18:17:07.470Z,6.97
2022-11-26T18:19:39.409Z,7.12
2022-11-26T18:22:13.572Z,7.12
2022-11-26T18:24:43.107Z,7.10
2022-11-26T18:27:11.247Z,7.00
2022-11-26T18:29:39.468Z,6.83
2022-11-26T18:32:09.100Z,7.14
2022-11-26T18:34:37.275Z,7.10
2022-11-26T18:37:05.702Z,7.16
2022-11-26T18:39:34.572Z,7.14
2022-11-26T18:42:35.484Z,7.07
2022-11-26T18:44:51.203Z,6.75
2022-11-26T18:47:20.992Z,7.20
2022-11-26T18:49:49.311Z,7.09
2022-11-26T18:52:18.089Z,7.14
2022-11-26T18:54:46.310Z,7.17
2022-11-26T18:57:15.973Z,7.19
2022-11-26T18:59:44.617Z,7.00
2022-11-26T19:02:14.262Z,7.18
2022-11-26T19:04:43.793Z,6.59
2022-11-26T19:07:14.112Z,7.05
2022-11-26T19:09:43.815Z,6.98
2022-11-26T19:12:13.808Z,6.84
2022-11-26T19:14:41.917Z,6.52
2022-11-26T19:17:10.104Z,7.01
2022-11-26T19:19:39.293Z,6.82
2022-11-26T19:22:10.402Z,6.91
2022-11-26T19:24:38.767Z,6.80
2022-11-26T19:27:07.036Z,6.66
2022-11-26T19:29:35.041Z,6.01
2022-11-26T19:32:03.477Z,6.61
2022-11-26T19:34:31.744Z,6.61
2022-11-26T19:37:00.132Z,6.57
2022-11-26T19:39:29.613Z,6.56
2022-11-26T19:41:57.732Z,6.54
2022-11-26T19:44:25.732Z,5.89
2022-11-26T19:46:53.797Z,6.37
2022-11-26T19:49:22.640Z,6.11
2022-11-26T19:51:51.397Z,6.44
2022-11-26T19:54:19.911Z,6.36
2022-11-26T19:56:49.546Z,6.35
2022-11-26T19:59:19.713Z,6.15
2022-11-26T20:01:47.898Z,6.19
2022-11-26T20:04:19.717Z,6.20
2022-11-26T20:06:48.450Z,5.99
2022-11-26T20:09:16.495Z,6.23
2022-11-26T20:11:45.840Z,5.90
2022-11-26T20:14:16.288Z,5.97
2022-11-26T20:16:46.144Z,6.04
2022-11-26T20:19:14.542Z,5.96
2022-11-26T20:21:42.636Z,5.68
2022-11-26T20:24:14.527Z,5.90
2022-11-26T20:26:45.607Z,5.75
2022-11-26T20:29:17.719Z,5.85
2022-11-26T20:31:47.779Z,5.81
2022-11-26T20:34:17.372Z,5.79
2022-11-26T20:36:46.074Z,5.90
2022-11-26T20:39:15.798Z,5.78
2022-11-26T20:41:45.355Z,5.77
2022-11-26T20:44:14.467Z,5.67
2022-11-26T20:46:44.203Z,4.79
2022-11-26T20:49:12.457Z,5.79
2022-11-26T20:51:40.916Z,5.21
2022-11-26T20:54:11.193Z,5.70
2022-11-26T20:56:39.511Z,5.68
2022-11-26T20:59:09.714Z,5.56
2022-11-26T21:01:39.136Z,5.49
2022-11-26T21:04:08.558Z,5.63
2022-11-26T21:06:37.915Z,5.72
2022-11-26T21:09:07.223Z,5.60
2022-11-26T21:11:36.229Z,5.24
2022-11-26T21:14:04.637Z,5.10
2022-11-26T21:16:34.732Z,5.46
2022-11-26T21:19:02.844Z,5.40
2022-11-26T21:21:32.634Z,5.49
2022-11-26T21:24:04.702Z,5.55
2022-11-26T21:26:33.174Z,5.06
2022-11-26T21:29:02.684Z,5.59
2022-11-26T21:31:33.038Z,5.65
2022-11-26T21:34:02.713Z,5.78
2022-11-26T21:36:34.285Z,5.80
2022-11-26T21:39:03.047Z,5.90
2022-11-26T21:41:33.328Z,5.89
2022-11-26T21:44:04.202Z,6.00
2022-11-26T21:46:37.839Z,5.88
2022-11-26T21:49:07.716Z,6.06
2022-11-26T21:51:37.301Z,6.09
2022-11-26T21:54:06.704Z,5.94
2022-11-26T21:56:35.188Z,6.00
2022-11-26T21:59:03.446Z,5.90
2022-11-26T22:01:33.194Z,6.08
2022-11-26T22:04:03.766Z,5.83
2022-11-26T22:06:32.624Z,6.15
2022-11-26T22:09:02.162Z,6.04
2022-11-26T22:11:32.484Z,6.20
2022-11-26T22:14:00.884Z,6.21
2022-11-26T22:16:30.782Z,6.19
2022-11-26T22:19:00.108Z,6.20
2022-11-26T22:21:30.858Z,6.27
2022-11-26T22:24:00.091Z,6.27
2022-11-26T22:26:30.631Z,6.12
2022-11-26T22:28:59.125Z,5.99
2022-11-26T22:31:30.018Z,5.76
2022-11-26T22:34:00.750Z,5.98
2022-11-26T22:36:29.575Z,5.37
2022-11-26T22:38:58.843Z,5.80
2022-11-26T22:41:27.454Z,5.84
2022-11-26T22:43:58.789Z,5.78
2022-11-26T22:46:27.088Z,5.93
2022-11-26T22:48:58.610Z,5.88
2022-11-26T22:51:28.554Z,5.75
2022-11-26T22:53:58.867Z,5.74
2022-11-26T22:56:28.276Z,5.46
2022-11-26T22:58:58.349Z,5.68
2022-11-26T23:01:28.599Z,5.70
2022-11-26T23:03:57.742Z,5.73
2022-11-26T23:06:28.673Z,5.57
2022-11-26T23:08:57.667Z,5.34
2022-11-26T23:11:28.244Z,5.57
2022-11-26T23:14:01.013Z,5.69
2022-11-26T23:16:29.687Z,5.79
2022-11-26T23:18:58.706Z,5.72
2022-11-26T23:21:30.493Z,5.74
2022-11-26T23:23:59.176Z,5.53
2022-11-26T23:26:29.633Z,5.60
2022-11-26T23:29:00.843Z,5.84
2022-11-26T23:31:30.948Z,5.75
2022-11-26T23:34:02.494Z,5.82
2022-11-26T23:36:32.009Z,5.85
2022-11-26T23:39:01.247Z,5.85
2022-11-26T23:41:29.572Z,5.86
2022-11-26T23:43:59.097Z,5.85
2022-11-26T23:46:29.534Z,5.56
2022-11-26T23:48:57.853Z,5.29
2022-11-26T23:51:27.432Z,5.69
2022-11-26T23:53:55.893Z,5.67
2022-11-26T23:56:26.566Z,5.60
2022-11-26T23:58:56.967Z,5.58
